MQT64O EDDL-EDDH
Flight info
| Callsign | MQT64O |
|---|---|
| Flight time | 0h 34m |
| Altitude | 31000 |
| Route | MEVEL1Z MEVEL Y850 BASUM/N0450F300 Y850 PIXUR/N0450F290 Y850 MUBZI M105 RIBSO RIBSO3S |
| Aircraft | A320/M-SDE3FGHIRWY/LB1 |
Departure
| Time | 2026-05-05 06:43 |
|---|---|
| Airport | Düsseldorf Airport (EDDL) |
Arrival
| Time | 2026-05-05 07:18 |
|---|---|
| Airport | Hamburg Helmut Schmidt Airport (EDDH) |
| Time | Latitude | Longitude | Altitude | Speed | Heading |
|---|---|---|---|---|---|
| 2026-05-05 06:22 | 51.27942 | 6.76187 | 137 ft | 0 kts | 92° |
| 2026-05-05 06:33 | 51.27942 | 6.76175 | 137 ft | 4 kts | 92° |
| 2026-05-05 06:34 | 51.27942 | 6.76132 | 137 ft | 3 kts | 88° |
| 2026-05-05 06:34 | 51.27940 | 6.76089 | 137 ft | 3 kts | 77° |
| 2026-05-05 06:34 | 51.27931 | 6.76053 | 137 ft | 4 kts | 28° |
| 2026-05-05 06:34 | 51.27920 | 6.76048 | 137 ft | 1 kts | 1° |
| 2026-05-05 06:35 | 51.27919 | 6.76048 | 137 ft | 0 kts | 1° |
| 2026-05-05 06:36 | 51.27957 | 6.76049 | 137 ft | 9 kts | 1° |
| 2026-05-05 06:37 | 51.28019 | 6.76050 | 137 ft | 8 kts | 1° |
| 2026-05-05 06:37 | 51.28070 | 6.76052 | 137 ft | 7 kts | 0° |
| 2026-05-05 06:37 | 51.28139 | 6.76050 | 137 ft | 13 kts | 27° |
| 2026-05-05 06:37 | 51.28198 | 6.76167 | 137 ft | 14 kts | 52° |
| 2026-05-05 06:38 | 51.28262 | 6.76299 | 137 ft | 16 kts | 53° |
| 2026-05-05 06:38 | 51.28307 | 6.76396 | 136 ft | 17 kts | 53° |
| 2026-05-05 06:38 | 51.28381 | 6.76556 | 137 ft | 19 kts | 54° |
| 2026-05-05 06:38 | 51.28458 | 6.76732 | 137 ft | 20 kts | 55° |
| 2026-05-05 06:39 | 51.28539 | 6.76922 | 137 ft | 21 kts | 56° |
| 2026-05-05 06:39 | 51.28643 | 6.77101 | 137 ft | 22 kts | 51° |
| 2026-05-05 06:39 | 51.28741 | 6.77298 | 137 ft | 24 kts | 51° |
| 2026-05-05 06:39 | 51.28846 | 6.77510 | 137 ft | 24 kts | 52° |
| 2026-05-05 06:40 | 51.28945 | 6.77717 | 137 ft | 24 kts | 52° |
| 2026-05-05 06:40 | 51.29049 | 6.77933 | 137 ft | 25 kts | 52° |
| 2026-05-05 06:40 | 51.29157 | 6.78156 | 137 ft | 26 kts | 52° |
| 2026-05-05 06:40 | 51.29272 | 6.78382 | 137 ft | 27 kts | 50° |
| 2026-05-05 06:41 | 51.29331 | 6.78509 | 138 ft | 8 kts | 53° |
| 2026-05-05 06:41 | 51.29362 | 6.78565 | 138 ft | 6 kts | 41° |
| 2026-05-05 06:41 | 51.29395 | 6.78570 | 138 ft | 7 kts | 353° |
| 2026-05-05 06:41 | 51.29468 | 6.78559 | 140 ft | 10 kts | 354° |
| 2026-05-05 06:42 | 51.29521 | 6.78544 | 143 ft | 7 kts | 335° |
| 2026-05-05 06:42 | 51.29502 | 6.78446 | 142 ft | 13 kts | 233° |
| 2026-05-05 06:42 | 51.29350 | 6.78127 | 139 ft | 72 kts | 232° |
| 2026-05-05 06:42 | 51.28911 | 6.77199 | 133 ft | 134 kts | 233° |
| 2026-05-05 06:43 | 51.28265 | 6.75803 | 297 ft | 166 kts | 234° |
| 2026-05-05 06:43 | 51.27585 | 6.74348 | 1013 ft | 162 kts | 234° |
| 2026-05-05 06:43 | 51.26936 | 6.72834 | 1551 ft | 174 kts | 250° |
| 2026-05-05 06:43 | 51.26943 | 6.70871 | 1872 ft | 189 kts | 298° |
| 2026-05-05 06:44 | 51.27871 | 6.69386 | 2377 ft | 194 kts | 330° |
| 2026-05-05 06:44 | 51.29140 | 6.68642 | 2949 ft | 198 kts | 354° |
| 2026-05-05 06:44 | 51.30585 | 6.68684 | 3235 ft | 221 kts | 5° |
| 2026-05-05 06:44 | 51.32194 | 6.68866 | 3621 ft | 244 kts | 5° |
| 2026-05-05 06:45 | 51.33965 | 6.69067 | 4167 ft | 263 kts | 5° |
| 2026-05-05 06:45 | 51.35812 | 6.69270 | 4998 ft | 269 kts | 4° |
| 2026-05-05 06:45 | 51.37695 | 6.69470 | 5870 ft | 274 kts | 4° |
| 2026-05-05 06:45 | 51.39615 | 6.69636 | 6696 ft | 279 kts | 2° |
| 2026-05-05 06:46 | 51.41572 | 6.69686 | 7516 ft | 284 kts | 0° |
| 2026-05-05 06:46 | 51.43567 | 6.69675 | 8356 ft | 289 kts | 359° |
| 2026-05-05 06:46 | 51.45590 | 6.69647 | 9176 ft | 293 kts | 359° |
| 2026-05-05 06:46 | 51.47639 | 6.69622 | 9977 ft | 297 kts | 359° |
| 2026-05-05 06:47 | 51.49770 | 6.69606 | 10376 ft | 318 kts | 359° |
| 2026-05-05 06:47 | 51.52061 | 6.69598 | 10625 ft | 341 kts | 359° |
| 2026-05-05 06:47 | 51.54502 | 6.69600 | 10987 ft | 358 kts | 360° |
| 2026-05-05 06:47 | 51.57020 | 6.69645 | 11634 ft | 365 kts | 4° |
| 2026-05-05 06:48 | 51.59528 | 6.70361 | 12327 ft | 369 kts | 17° |
| 2026-05-05 06:48 | 51.61896 | 6.71990 | 13009 ft | 372 kts | 31° |
| 2026-05-05 06:48 | 51.63985 | 6.74455 | 13684 ft | 376 kts | 44° |
| 2026-05-05 06:48 | 51.65706 | 6.77642 | 14338 ft | 378 kts | 54° |
| 2026-05-05 06:49 | 51.67278 | 6.81066 | 14987 ft | 382 kts | 54° |
| 2026-05-05 06:49 | 51.68864 | 6.84527 | 15591 ft | 386 kts | 54° |
| 2026-05-05 06:49 | 51.70469 | 6.88026 | 16190 ft | 390 kts | 54° |
| 2026-05-05 06:49 | 51.72089 | 6.91558 | 16765 ft | 394 kts | 54° |
| 2026-05-05 06:50 | 51.73725 | 6.95135 | 17326 ft | 398 kts | 54° |
| 2026-05-05 06:50 | 51.75377 | 6.98751 | 17876 ft | 402 kts | 54° |
| 2026-05-05 06:50 | 51.77043 | 7.02396 | 18398 ft | 406 kts | 54° |
| 2026-05-05 06:50 | 51.78727 | 7.06084 | 18912 ft | 410 kts | 54° |
| 2026-05-05 06:51 | 51.80424 | 7.09803 | 19393 ft | 414 kts | 54° |
| 2026-05-05 06:51 | 51.82137 | 7.13566 | 19895 ft | 418 kts | 54° |
| 2026-05-05 06:51 | 51.83867 | 7.17374 | 20367 ft | 421 kts | 54° |
| 2026-05-05 06:51 | 51.85651 | 7.21161 | 20803 ft | 426 kts | 50° |
| 2026-05-05 06:52 | 51.87690 | 7.24668 | 21241 ft | 430 kts | 46° |
| 2026-05-05 06:52 | 51.89771 | 7.28174 | 21680 ft | 433 kts | 46° |
| 2026-05-05 06:52 | 51.91862 | 7.31706 | 22122 ft | 437 kts | 47° |
| 2026-05-05 06:52 | 51.93971 | 7.35282 | 22549 ft | 440 kts | 47° |
| 2026-05-05 06:53 | 51.96092 | 7.38883 | 22955 ft | 443 kts | 47° |
| 2026-05-05 06:53 | 51.98230 | 7.42514 | 23344 ft | 447 kts | 47° |
| 2026-05-05 06:53 | 52.00387 | 7.46178 | 23746 ft | 450 kts | 47° |
| 2026-05-05 06:53 | 52.02554 | 7.49861 | 24135 ft | 453 kts | 47° |
| 2026-05-05 06:54 | 52.04735 | 7.53571 | 24513 ft | 456 kts | 47° |
| 2026-05-05 06:54 | 52.06931 | 7.57317 | 24875 ft | 458 kts | 47° |
| 2026-05-05 06:54 | 52.09134 | 7.61089 | 25214 ft | 462 kts | 47° |
| 2026-05-05 06:54 | 52.11355 | 7.64884 | 25560 ft | 465 kts | 47° |
| 2026-05-05 06:55 | 52.13611 | 7.68680 | 25887 ft | 468 kts | 47° |
| 2026-05-05 06:55 | 52.15894 | 7.72478 | 26227 ft | 471 kts | 46° |
| 2026-05-05 06:55 | 52.18198 | 7.76289 | 26555 ft | 474 kts | 46° |
| 2026-05-05 06:55 | 52.20509 | 7.80142 | 26878 ft | 476 kts | 47° |
| 2026-05-05 06:56 | 52.22812 | 7.84038 | 27200 ft | 479 kts | 47° |
| 2026-05-05 06:56 | 52.25119 | 7.87985 | 27500 ft | 481 kts | 48° |
| 2026-05-05 06:56 | 52.27427 | 7.91966 | 27788 ft | 484 kts | 48° |
| 2026-05-05 06:56 | 52.30055 | 7.96507 | 28104 ft | 487 kts | 48° |
| 2026-05-05 06:57 | 52.32073 | 7.99993 | 28348 ft | 489 kts | 48° |
| 2026-05-05 06:57 | 52.34417 | 8.04033 | 28606 ft | 491 kts | 48° |
| 2026-05-05 06:57 | 52.36774 | 8.08095 | 28871 ft | 494 kts | 48° |
| 2026-05-05 06:57 | 52.39148 | 8.12191 | 29129 ft | 496 kts | 48° |
| 2026-05-05 06:58 | 52.41524 | 8.16299 | 29379 ft | 498 kts | 48° |
| 2026-05-05 06:58 | 52.43906 | 8.20430 | 29727 ft | 498 kts | 48° |
| 2026-05-05 06:58 | 52.46283 | 8.24557 | 30083 ft | 497 kts | 48° |
| 2026-05-05 06:58 | 52.48655 | 8.28683 | 30427 ft | 497 kts | 48° |
| 2026-05-05 06:59 | 52.51027 | 8.32809 | 30763 ft | 497 kts | 47° |
| 2026-05-05 06:59 | 52.53400 | 8.36939 | 30914 ft | 496 kts | 47° |
| 2026-05-05 06:59 | 52.55764 | 8.41056 | 30948 ft | 494 kts | 47° |
| 2026-05-05 07:00 | 52.60465 | 8.49288 | 30939 ft | 493 kts | 47° |
| 2026-05-05 07:00 | 52.65148 | 8.57530 | 30921 ft | 494 kts | 47° |
| 2026-05-05 07:00 | 52.67490 | 8.61661 | 30737 ft | 492 kts | 47° |
| 2026-05-05 07:01 | 52.69830 | 8.65786 | 30908 ft | 493 kts | 47° |
| 2026-05-05 07:01 | 52.74956 | 8.73271 | 29774 ft | 498 kts | 31° |
| 2026-05-05 07:01 | 52.78049 | 8.75944 | 28436 ft | 506 kts | 20° |
| 2026-05-05 07:02 | 52.81416 | 8.77736 | 27135 ft | 511 kts | 10° |
| 2026-05-05 07:02 | 52.84899 | 8.78595 | 26417 ft | 501 kts | 1° |
| 2026-05-05 07:02 | 52.88360 | 8.78725 | 25615 ft | 495 kts | 357° |
| 2026-05-05 07:02 | 52.91775 | 8.78735 | 24886 ft | 488 kts | 357° |
| 2026-05-05 07:03 | 52.95151 | 8.78741 | 24149 ft | 482 kts | 358° |
| 2026-05-05 07:03 | 52.98480 | 8.79201 | 23434 ft | 478 kts | 5° |
| 2026-05-05 07:03 | 53.01759 | 8.79947 | 22729 ft | 473 kts | 5° |
| 2026-05-05 07:03 | 53.05000 | 8.80687 | 22069 ft | 468 kts | 5° |
| 2026-05-05 07:04 | 53.08210 | 8.81416 | 21423 ft | 462 kts | 5° |
| 2026-05-05 07:04 | 53.11379 | 8.82134 | 20804 ft | 457 kts | 5° |
| 2026-05-05 07:04 | 53.14506 | 8.82849 | 20224 ft | 451 kts | 5° |
| 2026-05-05 07:04 | 53.17593 | 8.83560 | 19648 ft | 445 kts | 5° |
| 2026-05-05 07:05 | 53.20637 | 8.84261 | 19102 ft | 439 kts | 5° |
| 2026-05-05 07:05 | 53.23645 | 8.84948 | 18577 ft | 433 kts | 5° |
| 2026-05-05 07:05 | 53.26570 | 8.85617 | 18273 ft | 416 kts | 5° |
| 2026-05-05 07:05 | 53.29410 | 8.86266 | 17353 ft | 408 kts | 5° |
| 2026-05-05 07:06 | 53.32193 | 8.86899 | 16408 ft | 401 kts | 5° |
| 2026-05-05 07:06 | 53.34910 | 8.87837 | 15466 ft | 397 kts | 14° |
| 2026-05-05 07:06 | 53.37491 | 8.89411 | 14502 ft | 393 kts | 21° |
| 2026-05-05 07:06 | 53.39991 | 8.91193 | 13564 ft | 388 kts | 21° |
| 2026-05-05 07:07 | 53.42432 | 8.93021 | 12611 ft | 383 kts | 27° |
| 2026-05-05 07:07 | 53.44494 | 8.95795 | 11686 ft | 379 kts | 49° |
| 2026-05-05 07:07 | 53.45843 | 8.99527 | 10737 ft | 373 kts | 70° |
| 2026-05-05 07:07 | 53.46384 | 9.03712 | 10088 ft | 358 kts | 84° |
| 2026-05-05 07:08 | 53.46684 | 9.07700 | 9955 ft | 332 kts | 84° |
| 2026-05-05 07:08 | 53.46957 | 9.11413 | 9728 ft | 313 kts | 84° |
| 2026-05-05 07:08 | 53.47219 | 9.14992 | 9207 ft | 306 kts | 84° |
| 2026-05-05 07:08 | 53.47473 | 9.18512 | 8621 ft | 302 kts | 84° |
| 2026-05-05 07:09 | 53.47721 | 9.21995 | 8015 ft | 299 kts | 84° |
| 2026-05-05 07:09 | 53.47965 | 9.25454 | 7413 ft | 296 kts | 84° |
| 2026-05-05 07:09 | 53.48204 | 9.28856 | 6830 ft | 292 kts | 84° |
| 2026-05-05 07:09 | 53.48438 | 9.32224 | 6238 ft | 288 kts | 84° |
| 2026-05-05 07:10 | 53.48664 | 9.35541 | 5644 ft | 284 kts | 84° |
| 2026-05-05 07:10 | 53.48882 | 9.38819 | 5054 ft | 280 kts | 84° |
| 2026-05-05 07:10 | 53.49091 | 9.42047 | 4495 ft | 276 kts | 84° |
| 2026-05-05 07:10 | 53.49282 | 9.45177 | 4231 ft | 259 kts | 84° |
| 2026-05-05 07:11 | 53.49453 | 9.48069 | 4102 ft | 239 kts | 84° |
| 2026-05-05 07:11 | 53.49610 | 9.50781 | 3809 ft | 229 kts | 84° |
| 2026-05-05 07:11 | 53.49758 | 9.53423 | 3401 ft | 226 kts | 84° |
| 2026-05-05 07:11 | 53.49898 | 9.56032 | 3060 ft | 221 kts | 84° |
| 2026-05-05 07:12 | 53.50029 | 9.58594 | 3030 ft | 221 kts | 84° |
| 2026-05-05 07:12 | 53.50157 | 9.61175 | 3033 ft | 222 kts | 84° |
| 2026-05-05 07:12 | 53.50285 | 9.63759 | 3031 ft | 222 kts | 84° |
| 2026-05-05 07:12 | 53.50413 | 9.66335 | 3031 ft | 222 kts | 84° |
| 2026-05-05 07:13 | 53.50540 | 9.68922 | 3029 ft | 222 kts | 84° |
| 2026-05-05 07:13 | 53.50667 | 9.71495 | 3032 ft | 218 kts | 84° |
| 2026-05-05 07:13 | 53.50920 | 9.73912 | 3026 ft | 206 kts | 67° |
| 2026-05-05 07:13 | 53.51652 | 9.75921 | 3029 ft | 201 kts | 49° |
| 2026-05-05 07:14 | 53.52551 | 9.77716 | 2868 ft | 200 kts | 49° |
| 2026-05-05 07:14 | 53.53446 | 9.79504 | 2631 ft | 200 kts | 49° |
| 2026-05-05 07:14 | 53.54337 | 9.81292 | 2393 ft | 197 kts | 49° |
| 2026-05-05 07:14 | 53.55189 | 9.83002 | 2120 ft | 185 kts | 50° |
| 2026-05-05 07:15 | 53.55991 | 9.84614 | 1876 ft | 174 kts | 51° |
| 2026-05-05 07:15 | 53.56729 | 9.86096 | 1671 ft | 158 kts | 51° |
| 2026-05-05 07:15 | 53.57413 | 9.87472 | 1453 ft | 150 kts | 51° |
| 2026-05-05 07:15 | 53.58063 | 9.88782 | 1263 ft | 143 kts | 49° |
| 2026-05-05 07:16 | 53.58696 | 9.90058 | 1077 ft | 141 kts | 49° |
| 2026-05-05 07:16 | 53.59321 | 9.91316 | 887 ft | 140 kts | 49° |
| 2026-05-05 07:16 | 53.59742 | 9.92166 | 764 ft | 140 kts | 49° |
| 2026-05-05 07:16 | 53.60566 | 9.93829 | 521 ft | 139 kts | 49° |
| 2026-05-05 07:17 | 53.61187 | 9.95081 | 327 ft | 140 kts | 49° |
| 2026-05-05 07:17 | 53.61609 | 9.95930 | 191 ft | 140 kts | 49° |
| 2026-05-05 07:17 | 53.62230 | 9.97173 | 75 ft | 137 kts | 49° |
| 2026-05-05 07:17 | 53.62819 | 9.98349 | 48 ft | 117 kts | 49° |
| 2026-05-05 07:18 | 53.63212 | 9.99149 | 51 ft | 48 kts | 51° |
| 2026-05-05 07:18 | 53.63295 | 9.99499 | 49 ft | 25 kts | 94° |
| 2026-05-05 07:18 | 53.63280 | 9.99706 | 49 ft | 9 kts | 62° |
| 2026-05-05 07:18 | 53.63315 | 9.99728 | 49 ft | 4 kts | 56° |
| 2026-05-05 07:19 | 53.63330 | 9.99769 | 49 ft | 4 kts | 58° |
| 2026-05-05 07:19 | 53.63376 | 9.99895 | 50 ft | 20 kts | 59° |
| 2026-05-05 07:19 | 53.63422 | 10.00101 | 51 ft | 17 kts | 107° |
| 2026-05-05 07:19 | 53.63319 | 10.00165 | 50 ft | 18 kts | 177° |
| 2026-05-05 07:20 | 53.63302 | 10.00167 | 50 ft | 0 kts | 176° |
| 2026-05-05 07:20 | 53.63301 | 10.00167 | 50 ft | 0 kts | 176° |
| 2026-05-05 07:20 | 53.63282 | 10.00170 | 50 ft | 11 kts | 175° |
| 2026-05-05 07:20 | 53.63201 | 10.00243 | 49 ft | 14 kts | 107° |
| 2026-05-05 07:21 | 53.63197 | 10.00364 | 49 ft | 0 kts | 85° |